Wetterdaten: Woche 15.08.16 - 21.08.16 (KW33)
Datum Zeit Temp. A. Feuchte A. Luftdruck Regen Wind Richtung Taupunkt Windchill Windben
15.08.2016 00:00 14,8 C 86 % 1020,4 hPa 0,0 l/m 0,0 km/h (0 Bft) O 12,5 C 14,8 C 0,0 km/h (0 Bft)
15.08.2016 01:00 13,8 C 88 % 1020,3 hPa 0,0 l/m 0,0 km/h (0 Bft) O 11,9 C 13,8 C 0,0 km/h (0 Bft)
15.08.2016 02:00 13,0 C 90 % 1020,1 hPa 0,0 l/m 0,0 km/h (0 Bft) O 11,4 C 13,0 C 0,0 km/h (0 Bft)
15.08.2016 03:00 12,6 C 91 % 1019,8 hPa 0,0 l/m 0,0 km/h (0 Bft) O 11,2 C 12,6 C 0,1 km/h (0 Bft)
15.08.2016 04:00 12,3 C 92 % 1019,6 hPa 0,0 l/m 0,0 km/h (0 Bft) O 11,0 C 12,3 C 0,0 km/h (0 Bft)
15.08.2016 05:00 11,8 C 93 % 1019,4 hPa 0,0 l/m 0,0 km/h (0 Bft) O 10,6 C 11,8 C 0,0 km/h (0 Bft)
15.08.2016 06:00 11,3 C 93 % 1019,4 hPa 0,0 l/m 0,0 km/h (0 Bft) O 10,3 C 11,3 C 0,0 km/h (0 Bft)
15.08.2016 07:00 11,6 C 95 % 1019,6 hPa 0,0 l/m 0,1 km/h (0 Bft) O 10,8 C 11,6 C 0,7 km/h (0 Bft)
15.08.2016 08:00 15,8 C 84 % 1019,7 hPa 0,0 l/m 0,9 km/h (0 Bft) O 13,2 C 15,8 C 2,3 km/h (1 Bft)
15.08.2016 09:00 20,6 C 69 % 1019,5 hPa 0,0 l/m 1,8 km/h (1 Bft) S-SW 14,7 C 20,6 C 4,7 km/h (1 Bft)
15.08.2016 10:00 23,2 C 58 % 1019,1 hPa 0,0 l/m 2,5 km/h (1 Bft) SW 14,6 C 23,2 C 5,7 km/h (2 Bft)
15.08.2016 11:00 25,0 C 54 % 1018,8 hPa 0,0 l/m 3,0 km/h (1 Bft) NW 15,0 C 25,0 C 6,4 km/h (2 Bft)
15.08.2016 12:00 26,0 C 51 % 1018,5 hPa 0,0 l/m 3,3 km/h (1 Bft) NW 15,1 C 26,0 C 7,5 km/h (2 Bft)
15.08.2016 13:00 27,6 C 46 % 1018,0 hPa 0,0 l/m 3,3 km/h (1 Bft) NO 14,9 C 27,6 C 7,9 km/h (2 Bft)
15.08.2016 14:00 28,4 C 42 % 1017,5 hPa 0,0 l/m 3,1 km/h (1 Bft) N 14,3 C 28,4 C 6,9 km/h (2 Bft)
15.08.2016 15:00 27,1 C 46 % 1017,2 hPa 0,0 l/m 2,0 km/h (1 Bft) SW 14,3 C 27,1 C 4,9 km/h (1 Bft)
15.08.2016 16:00 26,6 C 45 % 1016,9 hPa 0,0 l/m 1,3 km/h (1 Bft) N 13,8 C 26,6 C 4,0 km/h (1 Bft)
15.08.2016 17:00 25,1 C 53 % 1016,8 hPa 0,0 l/m 2,0 km/h (1 Bft) W-NW 14,9 C 25,1 C 4,9 km/h (1 Bft)
15.08.2016 18:00 23,6 C 61 % 1016,8 hPa 0,0 l/m 1,4 km/h (1 Bft) SW 15,5 C 23,6 C 3,6 km/h (1 Bft)
15.08.2016 19:00 21,4 C 77 % 1016,8 hPa 0,0 l/m 0,2 km/h (0 Bft) SW 17,2 C 21,4 C 1,3 km/h (1 Bft)
15.08.2016 20:00 19,2 C 83 % 1016,9 hPa 0,0 l/m 0,0 km/h (0 Bft) SW 16,3 C 19,2 C 0,0 km/h (0 Bft)
15.08.2016 21:00 17,2 C 88 % 1017,5 hPa 0,0 l/m 0,0 km/h (0 Bft) SW 15,1 C 17,2 C 0,1 km/h (0 Bft)
15.08.2016 22:00 15,8 C 90 % 1017,6 hPa 0,0 l/m 0,0 km/h (0 Bft) SW 14,2 C 15,8 C 0,0 km/h (0 Bft)
15.08.2016 23:00 14,5 C 92 % 1017,6 hPa 0,0 l/m 0,0 km/h (0 Bft) SW 13,3 C 14,5 C 0,0 km/h (0 Bft)
16.08.2016 00:00 13,9 C 93 % 1017,6 hPa 0,0 l/m 0,0 km/h (0 Bft) SW 12,9 C 13,9 C 0,1 km/h (0 Bft)
16.08.2016 01:00 13,4 C 94 % 1017,5 hPa 0,0 l/m 0,0 km/h (0 Bft) SW 12,4 C 13,4 C 0,0 km/h (0 Bft)
16.08.2016 02:00 13,0 C 94 % 1017,1 hPa 0,0 l/m 0,0 km/h (0 Bft) SW 12,1 C 13,0 C 0,0 km/h (0 Bft)
16.08.2016 03:00 12,4 C 95 % 1016,6 hPa 0,0 l/m 0,0 km/h (0 Bft) SW 11,7 C 12,4 C 0,0 km/h (0 Bft)
16.08.2016 04:00 12,0 C 95 % 1016,2 hPa 0,0 l/m 0,0 km/h (0 Bft) SW 11,2 C 12,0 C 0,1 km/h (0 Bft)
16.08.2016 05:00 11,3 C 95 % 1016,0 hPa 0,0 l/m 0,0 km/h (0 Bft) SW 10,6 C 11,3 C 0,0 km/h (0 Bft)
16.08.2016 06:00 10,9 C 95 % 1016,1 hPa 0,0 l/m 0,0 km/h (0 Bft) SW 10,2 C 10,9 C 0,0 km/h (0 Bft)
16.08.2016 07:00 11,3 C 97 % 1016,1 hPa 0,0 l/m 0,1 km/h (0 Bft) SW 10,8 C 11,3 C 0,9 km/h (0 Bft)
16.08.2016 08:00 15,1 C 89 % 1015,9 hPa 0,0 l/m 0,5 km/h (0 Bft) SW 13,4 C 15,1 C 1,9 km/h (1 Bft)
16.08.2016 09:00 19,8 C 75 % 1015,7 hPa 0,0 l/m 1,3 km/h (1 Bft) SW 15,1 C 19,8 C 3,2 km/h (1 Bft)
16.08.2016 10:00 23,2 C 65 % 1015,4 hPa 0,0 l/m 1,7 km/h (1 Bft) N-NO 16,2 C 23,2 C 4,3 km/h (1 Bft)
16.08.2016 11:00 25,5 C 57 % 1014,8 hPa 0,0 l/m 2,8 km/h (1 Bft) W-NW 16,2 C 25,5 C 6,1 km/h (2 Bft)
16.08.2016 12:00 26,7 C 51 % 1014,4 hPa 0,0 l/m 2,7 km/h (1 Bft) O-NO 15,8 C 26,7 C 5,6 km/h (2 Bft)
16.08.2016 13:00 27,2 C 46 % 1013,8 hPa 0,0 l/m 2,0 km/h (1 Bft) W-NW 14,5 C 27,2 C 5,5 km/h (2 Bft)
16.08.2016 14:00 28,3 C 45 % 1013,3 hPa 0,0 l/m 3,1 km/h (1 Bft) SW 15,3 C 28,3 C 8,2 km/h (2 Bft)
16.08.2016 15:00 29,4 C 35 % 1013,1 hPa 0,0 l/m 3,6 km/h (1 Bft) NO 11,9 C 29,4 C 9,0 km/h (2 Bft)
16.08.2016 16:00 30,3 C 36 % 1012,6 hPa 0,0 l/m 3,0 km/h (1 Bft) O-SO 13,2 C 30,3 C 9,3 km/h (2 Bft)
16.08.2016 17:00 29,3 C 41 % 1012,3 hPa 0,0 l/m 2,9 km/h (1 Bft) N-NO 14,7 C 29,3 C 7,3 km/h (2 Bft)
16.08.2016 18:00 28,4 C 39 % 1012,0 hPa 0,0 l/m 3,0 km/h (1 Bft) S 13,0 C 28,4 C 7,1 km/h (2 Bft)
16.08.2016 19:00 25,5 C 44 % 1011,8 hPa 0,0 l/m 2,0 km/h (1 Bft) W 12,2 C 25,5 C 5,7 km/h (2 Bft)
16.08.2016 20:00 22,8 C 55 % 1012,1 hPa 0,0 l/m 0,6 km/h (0 Bft) S 13,1 C 22,8 C 2,5 km/h (1 Bft)
16.08.2016 21:00 19,5 C 65 % 1012,6 hPa 0,0 l/m 0,2 km/h (0 Bft) S 12,7 C 19,5 C 1,3 km/h (1 Bft)
16.08.2016 22:00 17,1 C 74 % 1012,8 hPa 0,0 l/m 0,1 km/h (0 Bft) S 12,3 C 17,1 C 0,9 km/h (0 Bft)
16.08.2016 23:00 15,4 C 79 % 1012,9 hPa 0,0 l/m 0,0 km/h (0 Bft) S 11,8 C 15,4 C 0,2 km/h (0 Bft)
17.08.2016 00:00 14,4 C 84 % 1012,9 hPa 0,0 l/m 0,0 km/h (0 Bft) S 11,6 C 14,4 C 0,7 km/h (0 Bft)
17.08.2016 01:00 13,0 C 87 % 1012,8 hPa 0,0 l/m 0,0 km/h (0 Bft) S 10,8 C 13,0 C 0,7 km/h (0 Bft)
17.08.2016 02:00 12,0 C 89 % 1012,4 hPa 0,0 l/m 0,0 km/h (0 Bft) S 10,3 C 12,0 C 0,1 km/h (0 Bft)
17.08.2016 03:00 11,1 C 90 % 1012,2 hPa 0,0 l/m 0,0 km/h (0 Bft) S 9,6 C 11,1 C 0,3 km/h (0 Bft)
17.08.2016 04:00 10,5 C 91 % 1012,1 hPa 0,0 l/m 0,1 km/h (0 Bft) S 9,1 C 10,5 C 0,3 km/h (0 Bft)
17.08.2016 05:00 9,7 C 92 % 1012,1 hPa 0,0 l/m 0,1 km/h (0 Bft) S 8,5 C 9,7 C 0,6 km/h (0 Bft)
17.08.2016 06:00 9,3 C 93 % 1011,9 hPa 0,0 l/m 0,0 km/h (0 Bft) S 8,3 C 9,3 C 0,0 km/h (0 Bft)
17.08.2016 07:00 9,7 C 94 % 1011,6 hPa 0,0 l/m 0,0 km/h (0 Bft) S 8,8 C 9,7 C 0,0 km/h (0 Bft)
17.08.2016 08:00 11,7 C 92 % 1011,3 hPa 0,0 l/m 0,0 km/h (0 Bft) S 10,4 C 11,7 C 0,0 km/h (0 Bft)
17.08.2016 09:00 14,8 C 83 % 1011,4 hPa 0,0 l/m 0,4 km/h (0 Bft) S 11,9 C 14,8 C 1,2 km/h (1 Bft)
17.08.2016 10:00 17,1 C 72 % 1011,6 hPa 0,0 l/m 2,2 km/h (1 Bft) W 12,0 C 17,1 C 5,7 km/h (2 Bft)
17.08.2016 11:00 18,5 C 67 % 1011,5 hPa 0,0 l/m 2,0 km/h (1 Bft) W-SW 12,2 C 18,5 C 4,9 km/h (1 Bft)
17.08.2016 12:00 20,4 C 62 % 1011,3 hPa 0,0 l/m 1,6 km/h (1 Bft) W-SW 13,0 C 20,4 C 3,7 km/h (1 Bft)
17.08.2016 13:00 22,1 C 58 % 1011,1 hPa 0,0 l/m 1,9 km/h (1 Bft) O-SO 13,5 C 22,1 C 4,5 km/h (1 Bft)
17.08.2016 14:00 23,3 C 52 % 1010,7 hPa 0,0 l/m 1,5 km/h (1 Bft) S-SW 12,9 C 23,3 C 4,1 km/h (1 Bft)
17.08.2016 15:00 22,5 C 58 % 1010,5 hPa 0,0 l/m 1,0 km/h (0 Bft) W-NW 13,7 C 22,5 C 3,7 km/h (1 Bft)
17.08.2016 16:00 23,3 C 56 % 1010,2 hPa 0,0 l/m 2,1 km/h (1 Bft) NW 14,0 C 23,3 C 4,9 km/h (1 Bft)
17.08.2016 17:00 23,6 C 54 % 1009,8 hPa 0,0 l/m 1,5 km/h (1 Bft) W 13,7 C 23,6 C 3,8 km/h (1 Bft)
17.08.2016 18:00 22,5 C 58 % 1009,5 hPa 0,0 l/m 0,8 km/h (0 Bft) SW 13,8 C 22,5 C 3,2 km/h (1 Bft)
17.08.2016 19:00 22,0 C 62 % 1009,6 hPa 0,0 l/m 0,4 km/h (0 Bft) SW 14,2 C 22,0 C 1,9 km/h (1 Bft)
17.08.2016 20:00 19,8 C 72 % 1009,7 hPa 0,0 l/m 0,0 km/h (0 Bft) SW 14,5 C 19,8 C 0,3 km/h (0 Bft)
17.08.2016 21:00 17,5 C 80 % 1010,0 hPa 0,0 l/m 0,0 km/h (0 Bft) SW 14,0 C 17,5 C 0,3 km/h (0 Bft)
17.08.2016 22:00 16,3 C 84 % 1010,4 hPa 0,0 l/m 0,0 km/h (0 Bft) SW 13,6 C 16,3 C 0,5 km/h (0 Bft)
17.08.2016 23:00 15,5 C 87 % 1010,4 hPa 0,0 l/m 0,1 km/h (0 Bft) SW 13,3 C 15,5 C 0,3 km/h (0 Bft)
18.08.2016 00:00 15,1 C 88 % 1010,3 hPa 0,0 l/m 0,1 km/h (0 Bft) SW 13,1 C 15,1 C 0,7 km/h (0 Bft)
18.08.2016 01:00 14,5 C 90 % 1010,0 hPa 0,0 l/m 0,1 km/h (0 Bft) SW 12,8 C 14,5 C 1,1 km/h (0 Bft)
18.08.2016 02:00 14,0 C 89 % 1009,7 hPa 0,0 l/m 0,1 km/h (0 Bft) SW 12,3 C 14,0 C 0,8 km/h (0 Bft)
18.08.2016 03:00 12,4 C 89 % 1009,5 hPa 0,0 l/m 0,0 km/h (0 Bft) SW 10,7 C 12,4 C 0,7 km/h (0 Bft)
18.08.2016 04:00 11,4 C 91 % 1009,3 hPa 0,0 l/m 0,0 km/h (0 Bft) SW 9,9 C 11,4 C 0,3 km/h (0 Bft)
18.08.2016 05:00 10,8 C 93 % 1009,1 hPa 0,0 l/m 0,2 km/h (0 Bft) SW 9,7 C 10,8 C 0,8 km/h (0 Bft)
18.08.2016 06:00 10,5 C 94 % 1009,1 hPa 0,0 l/m 0,0 km/h (0 Bft) SW 9,5 C 10,5 C 0,5 km/h (0 Bft)
18.08.2016 07:00 11,8 C 96 % 1009,0 hPa 0,0 l/m 0,4 km/h (0 Bft) SW 11,1 C 11,8 C 1,5 km/h (1 Bft)
18.08.2016 08:00 13,7 C 94 % 1008,9 hPa 0,0 l/m 0,2 km/h (0 Bft) SW 12,7 C 13,7 C 1,2 km/h (1 Bft)
18.08.2016 09:00 15,7 C 90 % 1009,1 hPa 0,0 l/m 0,3 km/h (0 Bft) SW 14,1 C 15,7 C 1,3 km/h (1 Bft)
18.08.2016 10:00 17,4 C 86 % 1009,3 hPa 0,0 l/m 0,7 km/h (0 Bft) SW 15,1 C 17,4 C 2,5 km/h (1 Bft)
18.08.2016 11:00 20,8 C 72 % 1009,2 hPa 0,0 l/m 3,1 km/h (1 Bft) O-NO 15,5 C 20,8 C 7,3 km/h (2 Bft)
18.08.2016 12:00 22,6 C 65 % 1009,0 hPa 0,0 l/m 3,6 km/h (1 Bft) O 15,7 C 22,6 C 8,4 km/h (2 Bft)
18.08.2016 13:00 22,7 C 63 % 1008,9 hPa 0,0 l/m 6,2 km/h (2 Bft) O-NO 15,3 C 22,5 C 15,7 km/h (3 Bft)
18.08.2016 14:00 20,7 C 71 % 1009,3 hPa 0,0 l/m 6,1 km/h (2 Bft) O-NO 15,1 C 20,6 C 14,9 km/h (3 Bft)
18.08.2016 15:00 19,4 C 79 % 1009,3 hPa 0,0 l/m 3,9 km/h (1 Bft) O-NO 15,5 C 19,4 C 10,2 km/h (2 Bft)
18.08.2016 16:00 17,7 C 87 % 1009,1 hPa 0,0 l/m 3,4 km/h (1 Bft) O-NO 15,5 C 17,7 C 8,8 km/h (2 Bft)
18.08.2016 17:00 18,1 C 83 % 1009,4 hPa 0,0 l/m 3,4 km/h (1 Bft) O 15,2 C 18,1 C 7,1 km/h (2 Bft)
18.08.2016 18:00 18,1 C 82 % 1009,4 hPa 0,0 l/m 2,0 km/h (1 Bft) O-NO 14,9 C 18,1 C 4,2 km/h (1 Bft)
18.08.2016 19:00 17,8 C 83 % 1009,6 hPa 0,0 l/m 1,4 km/h (1 Bft) O-NO 14,9 C 17,8 C 4,0 km/h (1 Bft)
18.08.2016 20:00 17,4 C 84 % 1010,1 hPa 0,0 l/m 0,4 km/h (0 Bft) O 14,6 C 17,4 C 1,7 km/h (1 Bft)
18.08.2016 21:00 16,6 C 88 % 1010,4 hPa 0,0 l/m 0,1 km/h (0 Bft) O 14,6 C 16,6 C 0,7 km/h (0 Bft)
18.08.2016 22:00 16,2 C 90 % 1010,7 hPa 0,0 l/m 1,1 km/h (1 Bft) O 14,5 C 16,2 C 3,5 km/h (1 Bft)
18.08.2016 23:00 15,8 C 90 % 1010,8 hPa 0,0 l/m 1,0 km/h (0 Bft) N-NO 14,2 C 15,8 C 3,0 km/h (1 Bft)
19.08.2016 00:00 15,3 C 91 % 1010,8 hPa 0,0 l/m 0,8 km/h (0 Bft) O-NO 13,9 C 15,3 C 2,1 km/h (1 Bft)
19.08.2016 01:00 14,2 C 93 % 1010,8 hPa 0,0 l/m 0,1 km/h (0 Bft) O-NO 13,1 C 14,2 C 0,8 km/h (0 Bft)
19.08.2016 02:00 13,2 C 95 % 1010,7 hPa 0,0 l/m 0,1 km/h (0 Bft) O-NO 12,3 C 13,2 C 0,4 km/h (0 Bft)
19.08.2016 03:00 12,9 C 96 % 1010,4 hPa 0,0 l/m 0,1 km/h (0 Bft) O-NO 12,3 C 12,9 C 0,7 km/h (0 Bft)
19.08.2016 04:00 12,7 C 96 % 1010,3 hPa 0,0 l/m 0,1 km/h (0 Bft) O-NO 12,2 C 12,7 C 0,9 km/h (0 Bft)
19.08.2016 05:00 12,1 C 96 % 1010,5 hPa 0,0 l/m 0,0 km/h (0 Bft) O-NO 11,5 C 12,1 C 0,6 km/h (0 Bft)
19.08.2016 06:00 12,0 C 97 % 1010,6 hPa 0,0 l/m 0,1 km/h (0 Bft) O-NO 11,6 C 12,0 C 0,4 km/h (0 Bft)
19.08.2016 07:00 12,9 C 98 % 1010,8 hPa 0,0 l/m 0,1 km/h (0 Bft) O-NO 12,6 C 12,9 C 0,7 km/h (0 Bft)
19.08.2016 08:00 16,1 C 93 % 1011,0 hPa 0,0 l/m 3,1 km/h (1 Bft) NO 15,1 C 16,1 C 7,6 km/h (2 Bft)
19.08.2016 09:00 17,7 C 85 % 1011,1 hPa 0,0 l/m 2,3 km/h (1 Bft) O-NO 15,1 C 17,7 C 5,6 km/h (2 Bft)
19.08.2016 10:00 19,0 C 78 % 1011,0 hPa 0,0 l/m 2,8 km/h (1 Bft) NO 15,0 C 19,0 C 6,7 km/h (2 Bft)
19.08.2016 11:00 20,9 C 67 % 1010,9 hPa 0,0 l/m 3,2 km/h (1 Bft) O-NO 14,5 C 20,9 C 7,8 km/h (2 Bft)
19.08.2016 12:00 22,3 C 54 % 1010,8 hPa 0,0 l/m 4,5 km/h (1 Bft) O-NO 12,6 C 22,3 C 8,6 km/h (2 Bft)
19.08.2016 13:00 23,5 C 45 % 1010,6 hPa 0,0 l/m 3,3 km/h (1 Bft) O 10,9 C 23,5 C 6,4 km/h (2 Bft)
19.08.2016 14:00 23,9 C 48 % 1010,4 hPa 0,0 l/m 3,4 km/h (1 Bft) NO 12,3 C 23,9 C 8,4 km/h (2 Bft)
19.08.2016 15:00 24,2 C 49 % 1010,2 hPa 0,0 l/m 2,6 km/h (1 Bft) NO 12,8 C 24,2 C 6,8 km/h (2 Bft)
19.08.2016 16:00 23,4 C 52 % 1010,1 hPa 0,0 l/m 3,8 km/h (1 Bft) O-NO 12,9 C 23,4 C 9,3 km/h (2 Bft)
19.08.2016 17:00 22,5 C 53 % 1010,2 hPa 0,0 l/m 4,5 km/h (1 Bft) NO 12,4 C 22,5 C 10,1 km/h (2 Bft)
19.08.2016 18:00 22,4 C 51 % 1010,4 hPa 0,0 l/m 3,6 km/h (1 Bft) O-NO 11,7 C 22,4 C 7,7 km/h (2 Bft)
19.08.2016 19:00 20,8 C 56 % 1010,7 hPa 0,0 l/m 2,0 km/h (1 Bft) O-NO 11,7 C 20,8 C 4,5 km/h (1 Bft)
19.08.2016 20:00 19,4 C 64 % 1011,0 hPa 0,0 l/m 0,4 km/h (0 Bft) O 12,2 C 19,4 C 1,9 km/h (1 Bft)
19.08.2016 21:00 18,0 C 71 % 1011,5 hPa 0,0 l/m 0,1 km/h (0 Bft) O 12,7 C 18,0 C 0,8 km/h (0 Bft)
19.08.2016 22:00 16,6 C 77 % 1011,7 hPa 0,0 l/m 0,0 km/h (0 Bft) O 12,5 C 16,6 C 0,3 km/h (0 Bft)
19.08.2016 23:00 15,8 C 82 % 1012,1 hPa 0,0 l/m 0,0 km/h (0 Bft) O 12,7 C 15,8 C 0,3 km/h (0 Bft)
20.08.2016 00:00 15,6 C 83 % 1012,2 hPa 0,0 l/m 0,1 km/h (0 Bft) O 12,8 C 15,6 C 0,4 km/h (0 Bft)
20.08.2016 01:00 15,4 C 85 % 1012,3 hPa 0,0 l/m 0,0 km/h (0 Bft) O 12,8 C 15,4 C 0,4 km/h (0 Bft)
20.08.2016 02:00 15,0 C 86 % 1012,5 hPa 0,0 l/m 0,0 km/h (0 Bft) O 12,7 C 15,0 C 0,0 km/h (0 Bft)
20.08.2016 03:00 13,8 C 88 % 1012,6 hPa 0,0 l/m 0,0 km/h (0 Bft) O 11,9 C 13,8 C 0,1 km/h (0 Bft)
20.08.2016 04:00 12,8 C 91 % 1012,5 hPa 0,0 l/m 0,1 km/h (0 Bft) O 11,4 C 12,8 C 0,4 km/h (0 Bft)
20.08.2016 05:00 12,0 C 93 % 1012,5 hPa 0,0 l/m 0,1 km/h (0 Bft) O 10,9 C 12,0 C 0,7 km/h (0 Bft)
20.08.2016 06:00 11,5 C 94 % 1012,5 hPa 0,0 l/m 0,0 km/h (0 Bft) O 10,5 C 11,5 C 0,3 km/h (0 Bft)
20.08.2016 07:00 12,1 C 95 % 1012,5 hPa 0,0 l/m 0,3 km/h (0 Bft) O 11,3 C 12,1 C 1,3 km/h (1 Bft)
20.08.2016 08:00 15,9 C 85 % 1012,4 hPa 0,0 l/m 0,4 km/h (0 Bft) O 13,4 C 15,9 C 1,3 km/h (1 Bft)
20.08.2016 09:00 18,3 C 81 % 1012,6 hPa 0,0 l/m 1,1 km/h (0 Bft) W-NW 14,8 C 18,3 C 2,8 km/h (1 Bft)
20.08.2016 10:00 20,1 C 73 % 1012,5 hPa 0,0 l/m 1,4 km/h (1 Bft) O 15,1 C 20,1 C 4,1 km/h (1 Bft)
20.08.2016 11:00 21,1 C 66 % 1013,1 hPa 0,0 l/m 2,9 km/h (1 Bft) O-NO 14,5 C 21,1 C 5,7 km/h (2 Bft)
20.08.2016 12:00 20,9 C 67 % 1013,4 hPa 0,0 l/m 3,0 km/h (1 Bft) NO 14,6 C 20,9 C 6,4 km/h (2 Bft)
20.08.2016 13:00 20,3 C 70 % 1013,6 hPa 0,0 l/m 2,7 km/h (1 Bft) O 14,6 C 20,3 C 7,1 km/h (2 Bft)
20.08.2016 14:00 20,7 C 67 % 1013,3 hPa 0,0 l/m 1,9 km/h (1 Bft) O 14,3 C 20,7 C 4,9 km/h (1 Bft)
20.08.2016 15:00 20,5 C 70 % 1013,4 hPa 0,0 l/m 2,0 km/h (1 Bft) O-NO 14,7 C 20,5 C 4,9 km/h (1 Bft)
20.08.2016 16:00 18,7 C 83 % 1013,9 hPa 0,8 l/m 2,8 km/h (1 Bft) O-NO 15,8 C 18,7 C 6,6 km/h (2 Bft)
20.08.2016 17:00 17,2 C 89 % 1014,1 hPa 0,0 l/m 2,3 km/h (1 Bft) O-NO 15,5 C 17,2 C 5,6 km/h (2 Bft)
20.08.2016 18:00 16,2 C 90 % 1014,6 hPa 0,3 l/m 2,5 km/h (1 Bft) O 14,5 C 16,2 C 5,0 km/h (1 Bft)
20.08.2016 19:00 14,7 C 92 % 1015,5 hPa 1,0 l/m 2,0 km/h (1 Bft) O 13,4 C 14,7 C 6,3 km/h (2 Bft)
20.08.2016 20:00 14,0 C 93 % 1015,9 hPa 0,0 l/m 1,7 km/h (1 Bft) O-NO 12,8 C 14,0 C 5,1 km/h (1 Bft)
20.08.2016 21:00 13,3 C 94 % 1016,6 hPa 0,3 l/m 2,4 km/h (1 Bft) O-NO 12,2 C 13,3 C 6,0 km/h (2 Bft)
20.08.2016 22:00 12,7 C 93 % 1017,0 hPa 0,0 l/m 1,5 km/h (1 Bft) O-NO 11,7 C 12,7 C 4,3 km/h (1 Bft)
20.08.2016 23:00 12,4 C 94 % 1017,7 hPa 0,0 l/m 3,4 km/h (1 Bft) O-NO 11,5 C 12,4 C 8,3 km/h (2 Bft)
21.08.2016 00:00 12,1 C 94 % 1018,2 hPa 0,0 l/m 3,7 km/h (1 Bft) O 11,2 C 12,1 C 7,3 km/h (2 Bft)
21.08.2016 01:00 11,7 C 94 % 1018,4 hPa 0,0 l/m 1,7 km/h (1 Bft) O-NO 10,8 C 11,7 C 4,5 km/h (1 Bft)
21.08.2016 02:00 10,8 C 95 % 1018,6 hPa 0,0 l/m 1,0 km/h (0 Bft) O 10,1 C 10,8 C 2,8 km/h (1 Bft)
21.08.2016 03:00 10,2 C 96 % 1018,7 hPa 0,8 l/m 0,1 km/h (0 Bft) O 9,6 C 10,2 C 0,5 km/h (0 Bft)
21.08.2016 04:00 10,4 C 97 % 1018,8 hPa 0,5 l/m 0,3 km/h (0 Bft) SO 9,9 C 10,4 C 2,0 km/h (1 Bft)
21.08.2016 05:00 9,7 C 97 % 1018,8 hPa 0,0 l/m 0,3 km/h (0 Bft) SO 9,2 C 9,7 C 1,3 km/h (1 Bft)
21.08.2016 06:00 10,2 C 98 % 1019,0 hPa 0,0 l/m 0,4 km/h (0 Bft) O-NO 9,8 C 10,2 C 2,1 km/h (1 Bft)
21.08.2016 07:00 10,7 C 98 % 1019,1 hPa 0,0 l/m 0,5 km/h (0 Bft) O 10,3 C 10,7 C 2,1 km/h (1 Bft)
21.08.2016 08:00 12,3 C 97 % 1019,3 hPa 0,0 l/m 2,0 km/h (1 Bft) N-NO 11,9 C 12,3 C 5,1 km/h (1 Bft)
21.08.2016 09:00 14,1 C 91 % 1019,4 hPa 0,0 l/m 3,2 km/h (1 Bft) O 12,6 C 14,1 C 8,0 km/h (2 Bft)
21.08.2016 10:00 15,4 C 83 % 1019,6 hPa 0,0 l/m 5,1 km/h (1 Bft) O-NO 12,5 C 15,3 C 13,8 km/h (3 Bft)
21.08.2016 11:00 16,2 C 76 % 1019,9 hPa 0,0 l/m 5,7 km/h (2 Bft) O 12,0 C 16,1 C 13,8 km/h (3 Bft)
21.08.2016 12:00 14,2 C 84 % 1020,6 hPa 2,0 l/m 3,9 km/h (1 Bft) O 11,5 C 14,2 C 8,4 km/h (2 Bft)
21.08.2016 13:00 14,7 C 88 % 1020,7 hPa 0,3 l/m 3,7 km/h (1 Bft) NO 12,7 C 14,7 C 9,8 km/h (2 Bft)
21.08.2016 14:00 16,9 C 75 % 1020,9 hPa 0,0 l/m 4,8 km/h (1 Bft) O-NO 12,3 C 16,9 C 11,9 km/h (2 Bft)
21.08.2016 15:00 17,6 C 63 % 1021,2 hPa 0,0 l/m 6,9 km/h (2 Bft) O 10,5 C 17,3 C 17,3 km/h (3 Bft)
21.08.2016 16:00 17,5 C 58 % 1021,6 hPa 0,0 l/m 5,7 km/h (2 Bft) O-NO 9,1 C 17,4 C 16,0 km/h (3 Bft)
21.08.2016 17:00 17,5 C 57 % 1022,0 hPa 0,0 l/m 5,9 km/h (2 Bft) O 8,8 C 17,5 C 14,3 km/h (3 Bft)
21.08.2016 18:00 17,0 C 58 % 1022,3 hPa 0,0 l/m 4,6 km/h (1 Bft) O-NO 8,6 C 17,0 C 11,4 km/h (2 Bft)
21.08.2016 19:00 15,0 C 68 % 1022,9 hPa 0,0 l/m 2,9 km/h (1 Bft) O-NO 9,0 C 15,0 C 8,7 km/h (2 Bft)
21.08.2016 20:00 13,4 C 76 % 1023,6 hPa 0,0 l/m 1,0 km/h (0 Bft) O 9,2 C 13,4 C 3,6 km/h (1 Bft)
21.08.2016 21:00 12,5 C 79 % 1024,6 hPa 0,0 l/m 2,5 km/h (1 Bft) NO 9,1 C 12,5 C 7,0 km/h (2 Bft)
21.08.2016 22:00 12,2 C 80 % 1025,1 hPa 0,0 l/m 0,8 km/h (0 Bft) O-SO 8,8 C 12,2 C 2,8 km/h (1 Bft)
21.08.2016 23:00 10,6 C 87 % 1025,3 hPa 0,0 l/m 0,1 km/h (0 Bft) O-SO 8,5 C 10,6 C 1,0 km/h (0 Bft)
Min-Datum _ 17.08.16 16.08.16 18.08.16 - 21.08.16 - 17.08.16 17.08.16 21.08.16
_ Min-Zeit 06:25 15:40 13:35 - 23:00 - 06:25 06:25 23:00
Minimum _ 9,2 C 27 % 1008,7 hPa - 0,0 km/h (0 Bft) - 8,1 C 9,2 C 0,0 km/h (0 Bft)
Max-Datum _ 16.08.16 21.08.16 21.08.16 21.08.16 21.08.16 - 15.08.16 16.08.16 21.08.16
_ Max-Zeit 16:25 08:00 23:55 12:00 15:00 - 19:10 16:25 18:50
Maximum _ 30,6 C 98 % 1025,5 hPa 2,0 l/m 10,1 km/h
O (2 Bft)
- 17,7 C 30,6 C 25,7 km/h
O-NO (4 Bft)
Durchschnitt _ 17,1 C 78 % 1014,1 hPa #5,8 l/m 1,5 km/h (1 Bft) O 12,7 C 17,1 C 3,9 km/h (1 Bft)